首页
METAR-TAF:

METAR-TAF

机场 :

伦敦斯坦斯特德机场

坦斯特德機場, 英格兰

纬度: 51-53N, 经度: 000-14E, 海拔: 106米

当前天气观测

该预报发布于32分钟前的08:20 UTC
风速6节,风向东南
温度 19°C
湿度 73%
气压 1003 hPa
能见度10公里或以上

METAR: EGSS 220820Z AUTO 13006KT 9999 //////TCU 19/14 Q1003

时间: 09:52 (08:52 UTC)

预报

该预报发布于3小时和46分钟前的05:06 UTC
预报有效从22日的 06点(UTC)到 23日的 12点(UTC)
风速11节,风向
能见度10公里或以上
散云层高于3000英尺
短暂存在
从 22日的 06点(UTC)到 22日的 08点(UTC)
能見度: 7000
阵雨
几率 30% :
短暂存在
从 22日的 06点(UTC)到 22日的 08点(UTC)
能見度: 4000
大阵雨
成为
从 22日的 10点(UTC)到 22日的 13点(UTC)
风速10节,风向南转西南
短暂存在
从 22日的 10点(UTC)到 22日的 15点(UTC)
能見度: 6000
阵雨, 雨
几率 40% :
短暂存在
从 22日的 10点(UTC)到 22日的 14点(UTC)
风速15节,风向南转南东,有时为25节阵风
能見度: 3000
多云层高于900英尺
多云层高于2000英尺, 积雨云.
大阵雨
成为
从 23日的 03点(UTC)到 23日的 06点(UTC)
风速10节,风向西转西南
几率 30% :
短暂存在
从 23日的 03点(UTC)到 23日的 09点(UTC)
能見度: 8000
多云层高于800英尺

TAF: EGSS 220506Z 2206/2312 10011KT 9999 SCT030 TEMPO 2206/2208 7000 SHRA PROB30 TEMPO 2206/2208 4000 +SHRA BECMG 2210/2213 20010KT TEMPO 2210/2215 6000 SHRA RA PROB40 TEMPO 2210/2214 16015G25KT 3000 +SHRA BKN009 BKN020CB BECMG 2303/2306 24010KT PROB30 TEMPO 2303/2309 8000 BKN008

超过4000个机场的气象观测和天气预报(METAR&TAF报告)。

可查询的气象台以黄色和红色小点在地图上表示。

将鼠标移到小点上方,可查看气象台名称。

然后点击查看天气观测和预报。

如需切换地图:点击带黑十字的绿色按钮放大地图;点击带横线的绿色按钮缩小地图;或者点击绿色箭头查看邻近地区的地图。


METAR-TAF: